sensor_id;sensor_type;location;lat;lon;timestamp;P1;durP1;ratioP1;P2;durP2;ratioP2
74908;SDS011;63468;52.058;4.824;2022-11-20T00:01:37;30.90;;;17.50;;
74908;SDS011;63468;52.058;4.824;2022-11-20T00:04:02;27.08;;;16.50;;
74908;SDS011;63468;52.058;4.824;2022-11-20T00:06:28;25.55;;;15.73;;
74908;SDS011;63468;52.058;4.824;2022-11-20T00:08:54;25.27;;;14.55;;
74908;SDS011;63468;52.058;4.824;2022-11-20T00:11:21;25.48;;;13.88;;
74908;SDS011;63468;52.058;4.824;2022-11-20T00:13:48;25.48;;;14.38;;
74908;SDS011;63468;52.058;4.824;2022-11-20T00:16:15;26.52;;;15.40;;
74908;SDS011;63468;52.058;4.824;2022-11-20T00:18:43;23.05;;;14.38;;
74908;SDS011;63468;52.058;4.824;2022-11-20T00:21:15;26.38;;;15.23;;
74908;SDS011;63468;52.058;4.824;2022-11-20T00:23:42;24.02;;;15.35;;
74908;SDS011;63468;52.058;4.824;2022-11-20T00:26:08;27.67;;;15.23;;
74908;SDS011;63468;52.058;4.824;2022-11-20T00:28:37;26.17;;;14.80;;
74908;SDS011;63468;52.058;4.824;2022-11-20T00:31:03;26.20;;;16.50;;
74908;SDS011;63468;52.058;4.824;2022-11-20T00:33:32;26.52;;;15.70;;
74908;SDS011;63468;52.058;4.824;2022-11-20T00:36:08;29.88;;;16.67;;
74908;SDS011;63468;52.058;4.824;2022-11-20T00:38:35;28.88;;;16.40;;
74908;SDS011;63468;52.058;4.824;2022-11-20T00:41:01;25.83;;;17.70;;
74908;SDS011;63468;52.058;4.824;2022-11-20T00:43:28;23.13;;;15.25;;
74908;SDS011;63468;52.058;4.824;2022-11-20T00:45:57;27.63;;;17.30;;
74908;SDS011;63468;52.058;4.824;2022-11-20T00:48:23;23.08;;;14.68;;
74908;SDS011;63468;52.058;4.824;2022-11-20T00:50:48;27.50;;;14.93;;
74908;SDS011;63468;52.058;4.824;2022-11-20T00:53:14;26.98;;;15.05;;
74908;SDS011;63468;52.058;4.824;2022-11-20T00:55:39;24.65;;;14.85;;
74908;SDS011;63468;52.058;4.824;2022-11-20T00:58:04;25.75;;;15.30;;
74908;SDS011;63468;52.058;4.824;2022-11-20T01:00:30;27.40;;;14.43;;
74908;SDS011;63468;52.058;4.824;2022-11-20T01:02:55;21.33;;;12.73;;
74908;SDS011;63468;52.058;4.824;2022-11-20T01:05:21;26.60;;;15.65;;
74908;SDS011;63468;52.058;4.824;2022-11-20T01:07:46;26.77;;;14.85;;
74908;SDS011;63468;52.058;4.824;2022-11-20T01:10:11;30.10;;;15.77;;
74908;SDS011;63468;52.058;4.824;2022-11-20T01:12:37;26.00;;;14.30;;
74908;SDS011;63468;52.058;4.824;2022-11-20T01:15:02;28.92;;;15.23;;
74908;SDS011;63468;52.058;4.824;2022-11-20T01:17:28;27.90;;;14.35;;
74908;SDS011;63468;52.058;4.824;2022-11-20T01:19:53;31.23;;;14.40;;
74908;SDS011;63468;52.058;4.824;2022-11-20T01:22:18;22.92;;;14.95;;
74908;SDS011;63468;52.058;4.824;2022-11-20T01:24:44;22.83;;;14.23;;
74908;SDS011;63468;52.058;4.824;2022-11-20T01:27:09;23.25;;;12.95;;
74908;SDS011;63468;52.058;4.824;2022-11-20T01:29:34;22.75;;;13.73;;
74908;SDS011;63468;52.058;4.824;2022-11-20T01:31:59;27.27;;;14.93;;
74908;SDS011;63468;52.058;4.824;2022-11-20T01:34:25;30.48;;;15.65;;
74908;SDS011;63468;52.058;4.824;2022-11-20T01:36:51;25.02;;;15.10;;
74908;SDS011;63468;52.058;4.824;2022-11-20T01:39:21;20.75;;;14.05;;
74908;SDS011;63468;52.058;4.824;2022-11-20T01:41:48;26.15;;;14.73;;
74908;SDS011;63468;52.058;4.824;2022-11-20T01:44:49;25.35;;;14.05;;
74908;SDS011;63468;52.058;4.824;2022-11-20T01:47:20;26.15;;;14.35;;
74908;SDS011;63468;52.058;4.824;2022-11-20T01:50:22;27.88;;;13.90;;
74908;SDS011;63468;52.058;4.824;2022-11-20T01:52:59;26.10;;;14.60;;
74908;SDS011;63468;52.058;4.824;2022-11-20T01:55:29;31.63;;;13.77;;
74908;SDS011;63468;52.058;4.824;2022-11-20T01:57:56;22.20;;;13.65;;
74908;SDS011;63468;52.058;4.824;2022-11-20T02:00:22;24.88;;;13.63;;
74908;SDS011;63468;52.058;4.824;2022-11-20T02:02:49;23.52;;;13.38;;
74908;SDS011;63468;52.058;4.824;2022-11-20T02:05:22;25.98;;;13.75;;
74908;SDS011;63468;52.058;4.824;2022-11-20T02:07:50;23.23;;;12.88;;
74908;SDS011;63468;52.058;4.824;2022-11-20T02:10:16;25.55;;;14.00;;
74908;SDS011;63468;52.058;4.824;2022-11-20T02:12:41;26.55;;;14.10;;
74908;SDS011;63468;52.058;4.824;2022-11-20T02:15:25;24.65;;;13.13;;
74908;SDS011;63468;52.058;4.824;2022-11-20T02:17:51;25.45;;;14.35;;
74908;SDS011;63468;52.058;4.824;2022-11-20T02:20:16;25.42;;;15.00;;
74908;SDS011;63468;52.058;4.824;2022-11-20T02:22:45;29.15;;;13.85;;
74908;SDS011;63468;52.058;4.824;2022-11-20T02:25:15;26.33;;;15.63;;
74908;SDS011;63468;52.058;4.824;2022-11-20T02:27:41;30.98;;;15.05;;
74908;SDS011;63468;52.058;4.824;2022-11-20T02:30:06;29.77;;;15.65;;
74908;SDS011;63468;52.058;4.824;2022-11-20T02:32:36;27.38;;;15.05;;
74908;SDS011;63468;52.058;4.824;2022-11-20T02:35:08;26.73;;;13.23;;
74908;SDS011;63468;52.058;4.824;2022-11-20T02:37:36;28.52;;;13.82;;
74908;SDS011;63468;52.058;4.824;2022-11-20T02:40:02;24.95;;;13.88;;
74908;SDS011;63468;52.058;4.824;2022-11-20T02:42:28;31.88;;;14.63;;
74908;SDS011;63468;52.058;4.824;2022-11-20T02:44:53;25.05;;;14.20;;
74908;SDS011;63468;52.058;4.824;2022-11-20T02:47:18;24.75;;;13.70;;
74908;SDS011;63468;52.058;4.824;2022-11-20T02:49:43;27.85;;;14.35;;
74908;SDS011;63468;52.058;4.824;2022-11-20T02:52:09;25.90;;;13.90;;
74908;SDS011;63468;52.058;4.824;2022-11-20T02:54:34;27.85;;;14.23;;
74908;SDS011;63468;52.058;4.824;2022-11-20T02:56:59;30.65;;;14.85;;
74908;SDS011;63468;52.058;4.824;2022-11-20T02:59:25;26.20;;;13.63;;
74908;SDS011;63468;52.058;4.824;2022-11-20T03:01:50;27.77;;;14.15;;
74908;SDS011;63468;52.058;4.824;2022-11-20T03:04:15;22.60;;;12.70;;
74908;SDS011;63468;52.058;4.824;2022-11-20T03:06:41;26.92;;;13.25;;
74908;SDS011;63468;52.058;4.824;2022-11-20T03:09:06;24.67;;;13.48;;
74908;SDS011;63468;52.058;4.824;2022-11-20T03:11:31;23.13;;;12.75;;
74908;SDS011;63468;52.058;4.824;2022-11-20T03:13:57;23.60;;;12.18;;
74908;SDS011;63468;52.058;4.824;2022-11-20T03:16:22;25.80;;;11.73;;
74908;SDS011;63468;52.058;4.824;2022-11-20T03:18:48;25.48;;;12.25;;
74908;SDS011;63468;52.058;4.824;2022-11-20T03:21:14;26.80;;;13.80;;
74908;SDS011;63468;52.058;4.824;2022-11-20T03:23:39;21.75;;;11.68;;
74908;SDS011;63468;52.058;4.824;2022-11-20T03:26:13;26.95;;;13.73;;
74908;SDS011;63468;52.058;4.824;2022-11-20T03:28:51;27.85;;;14.07;;
74908;SDS011;63468;52.058;4.824;2022-11-20T03:31:18;28.98;;;13.48;;
74908;SDS011;63468;52.058;4.824;2022-11-20T03:33:45;26.42;;;12.57;;
74908;SDS011;63468;52.058;4.824;2022-11-20T03:36:11;27.50;;;13.05;;
74908;SDS011;63468;52.058;4.824;2022-11-20T03:38:37;30.83;;;12.35;;
74908;SDS011;63468;52.058;4.824;2022-11-20T03:41:07;23.25;;;12.23;;
74908;SDS011;63468;52.058;4.824;2022-11-20T03:43:34;24.80;;;12.60;;
74908;SDS011;63468;52.058;4.824;2022-11-20T03:46:00;24.13;;;10.93;;
74908;SDS011;63468;52.058;4.824;2022-11-20T03:48:26;24.65;;;12.13;;
74908;SDS011;63468;52.058;4.824;2022-11-20T03:50:51;23.05;;;11.38;;
74908;SDS011;63468;52.058;4.824;2022-11-20T03:53:17;23.65;;;12.13;;
74908;SDS011;63468;52.058;4.824;2022-11-20T03:55:43;25.92;;;12.30;;
74908;SDS011;63468;52.058;4.824;2022-11-20T03:58:09;22.50;;;12.07;;
74908;SDS011;63468;52.058;4.824;2022-11-20T04:00:34;20.30;;;10.93;;
74908;SDS011;63468;52.058;4.824;2022-11-20T04:03:00;21.25;;;11.77;;
74908;SDS011;63468;52.058;4.824;2022-11-20T04:05:26;24.77;;;12.02;;
74908;SDS011;63468;52.058;4.824;2022-11-20T04:07:51;28.52;;;11.73;;
74908;SDS011;63468;52.058;4.824;2022-11-20T04:10:17;22.02;;;11.52;;
74908;SDS011;63468;52.058;4.824;2022-11-20T04:12:42;21.38;;;11.52;;
74908;SDS011;63468;52.058;4.824;2022-11-20T04:15:08;23.20;;;11.40;;
74908;SDS011;63468;52.058;4.824;2022-11-20T04:17:33;22.33;;;11.65;;
74908;SDS011;63468;52.058;4.824;2022-11-20T04:19:58;26.42;;;12.43;;
74908;SDS011;63468;52.058;4.824;2022-11-20T04:22:24;27.35;;;11.50;;
74908;SDS011;63468;52.058;4.824;2022-11-20T04:24:49;24.80;;;12.35;;
74908;SDS011;63468;52.058;4.824;2022-11-20T04:27:15;28.60;;;11.98;;
74908;SDS011;63468;52.058;4.824;2022-11-20T04:29:40;27.38;;;12.65;;
74908;SDS011;63468;52.058;4.824;2022-11-20T04:32:05;24.52;;;11.65;;
74908;SDS011;63468;52.058;4.824;2022-11-20T04:34:30;25.08;;;13.23;;
74908;SDS011;63468;52.058;4.824;2022-11-20T04:36:56;24.95;;;11.85;;
74908;SDS011;63468;52.058;4.824;2022-11-20T04:39:21;27.55;;;10.20;;
74908;SDS011;63468;52.058;4.824;2022-11-20T04:41:46;22.50;;;11.82;;
74908;SDS011;63468;52.058;4.824;2022-11-20T04:44:12;25.65;;;10.50;;
74908;SDS011;63468;52.058;4.824;2022-11-20T04:46:39;26.73;;;12.00;;
74908;SDS011;63468;52.058;4.824;2022-11-20T04:49:05;31.52;;;13.02;;
74908;SDS011;63468;52.058;4.824;2022-11-20T04:51:31;26.70;;;11.65;;
74908;SDS011;63468;52.058;4.824;2022-11-20T04:53:57;26.10;;;12.63;;
74908;SDS011;63468;52.058;4.824;2022-11-20T04:56:22;29.95;;;13.25;;
74908;SDS011;63468;52.058;4.824;2022-11-20T04:58:48;22.30;;;12.60;;
74908;SDS011;63468;52.058;4.824;2022-11-20T05:01:14;29.83;;;13.80;;
74908;SDS011;63468;52.058;4.824;2022-11-20T05:03:42;28.65;;;12.50;;
74908;SDS011;63468;52.058;4.824;2022-11-20T05:06:08;28.40;;;12.20;;
74908;SDS011;63468;52.058;4.824;2022-11-20T05:08:35;28.17;;;12.35;;
74908;SDS011;63468;52.058;4.824;2022-11-20T05:11:05;26.90;;;11.82;;
74908;SDS011;63468;52.058;4.824;2022-11-20T05:13:37;21.73;;;11.27;;
74908;SDS011;63468;52.058;4.824;2022-11-20T05:16:04;24.95;;;11.50;;
74908;SDS011;63468;52.058;4.824;2022-11-20T05:18:30;32.08;;;13.00;;
74908;SDS011;63468;52.058;4.824;2022-11-20T05:20:56;22.88;;;11.25;;
74908;SDS011;63468;52.058;4.824;2022-11-20T05:23:22;25.52;;;12.35;;
74908;SDS011;63468;52.058;4.824;2022-11-20T05:25:51;27.90;;;11.48;;
74908;SDS011;63468;52.058;4.824;2022-11-20T05:28:17;24.58;;;12.02;;
74908;SDS011;63468;52.058;4.824;2022-11-20T05:30:42;23.63;;;11.82;;
74908;SDS011;63468;52.058;4.824;2022-11-20T05:33:07;25.35;;;11.52;;
74908;SDS011;63468;52.058;4.824;2022-11-20T05:35:33;26.38;;;12.10;;
74908;SDS011;63468;52.058;4.824;2022-11-20T05:37:58;29.77;;;13.32;;
74908;SDS011;63468;52.058;4.824;2022-11-20T05:40:23;28.35;;;13.52;;
74908;SDS011;63468;52.058;4.824;2022-11-20T05:42:48;25.73;;;12.70;;
74908;SDS011;63468;52.058;4.824;2022-11-20T05:45:14;27.20;;;12.27;;
74908;SDS011;63468;52.058;4.824;2022-11-20T05:47:39;25.58;;;13.23;;
74908;SDS011;63468;52.058;4.824;2022-11-20T05:50:04;29.85;;;13.50;;
74908;SDS011;63468;52.058;4.824;2022-11-20T05:52:30;25.35;;;12.82;;
74908;SDS011;63468;52.058;4.824;2022-11-20T05:54:56;29.63;;;13.85;;
74908;SDS011;63468;52.058;4.824;2022-11-20T05:57:21;31.13;;;15.02;;
74908;SDS011;63468;52.058;4.824;2022-11-20T05:59:46;35.38;;;14.02;;
74908;SDS011;63468;52.058;4.824;2022-11-20T06:02:12;24.90;;;12.98;;
74908;SDS011;63468;52.058;4.824;2022-11-20T06:04:37;26.58;;;13.60;;
74908;SDS011;63468;52.058;4.824;2022-11-20T06:07:04;28.80;;;12.93;;
74908;SDS011;63468;52.058;4.824;2022-11-20T06:09:30;27.45;;;13.35;;
74908;SDS011;63468;52.058;4.824;2022-11-20T06:11:55;23.77;;;12.77;;
74908;SDS011;63468;52.058;4.824;2022-11-20T06:14:20;26.33;;;13.30;;
74908;SDS011;63468;52.058;4.824;2022-11-20T06:16:46;29.95;;;12.98;;
74908;SDS011;63468;52.058;4.824;2022-11-20T06:19:11;22.77;;;12.20;;
74908;SDS011;63468;52.058;4.824;2022-11-20T06:21:36;30.13;;;14.25;;
74908;SDS011;63468;52.058;4.824;2022-11-20T06:24:02;30.60;;;14.68;;
74908;SDS011;63468;52.058;4.824;2022-11-20T06:26:27;29.02;;;13.35;;
74908;SDS011;63468;52.058;4.824;2022-11-20T06:28:53;28.10;;;12.48;;
74908;SDS011;63468;52.058;4.824;2022-11-20T06:31:20;29.02;;;12.63;;
74908;SDS011;63468;52.058;4.824;2022-11-20T06:33:46;24.90;;;13.82;;
74908;SDS011;63468;52.058;4.824;2022-11-20T06:36:12;25.77;;;13.38;;
74908;SDS011;63468;52.058;4.824;2022-11-20T06:38:38;24.17;;;12.45;;
74908;SDS011;63468;52.058;4.824;2022-11-20T06:41:04;27.27;;;12.75;;
74908;SDS011;63468;52.058;4.824;2022-11-20T06:43:30;28.05;;;12.52;;
74908;SDS011;63468;52.058;4.824;2022-11-20T06:45:56;24.38;;;11.70;;
74908;SDS011;63468;52.058;4.824;2022-11-20T06:48:22;28.90;;;13.40;;
74908;SDS011;63468;52.058;4.824;2022-11-20T06:50:48;26.85;;;12.48;;
74908;SDS011;63468;52.058;4.824;2022-11-20T06:53:13;26.70;;;13.15;;
74908;SDS011;63468;52.058;4.824;2022-11-20T06:55:41;26.27;;;12.38;;
74908;SDS011;63468;52.058;4.824;2022-11-20T06:58:07;27.77;;;12.38;;
74908;SDS011;63468;52.058;4.824;2022-11-20T07:00:33;27.65;;;14.48;;
74908;SDS011;63468;52.058;4.824;2022-11-20T07:02:58;26.30;;;13.80;;
74908;SDS011;63468;52.058;4.824;2022-11-20T07:05:28;25.42;;;12.93;;
74908;SDS011;63468;52.058;4.824;2022-11-20T07:07:55;23.20;;;13.52;;
74908;SDS011;63468;52.058;4.824;2022-11-20T07:10:21;24.75;;;12.85;;
74908;SDS011;63468;52.058;4.824;2022-11-20T07:12:49;22.83;;;11.90;;
74908;SDS011;63468;52.058;4.824;2022-11-20T07:15:15;25.63;;;13.27;;
74908;SDS011;63468;52.058;4.824;2022-11-20T07:17:41;27.05;;;13.00;;
74908;SDS011;63468;52.058;4.824;2022-11-20T07:20:06;23.10;;;12.48;;
74908;SDS011;63468;52.058;4.824;2022-11-20T07:22:32;26.02;;;12.43;;
74908;SDS011;63468;52.058;4.824;2022-11-20T07:24:57;25.70;;;12.77;;
74908;SDS011;63468;52.058;4.824;2022-11-20T07:27:23;31.13;;;12.70;;
74908;SDS011;63468;52.058;4.824;2022-11-20T07:29:48;26.45;;;13.23;;
74908;SDS011;63468;52.058;4.824;2022-11-20T07:32:13;25.40;;;12.85;;
74908;SDS011;63468;52.058;4.824;2022-11-20T07:34:38;23.98;;;12.27;;
74908;SDS011;63468;52.058;4.824;2022-11-20T07:37:04;27.15;;;13.10;;
74908;SDS011;63468;52.058;4.824;2022-11-20T07:39:29;26.02;;;13.27;;
74908;SDS011;63468;52.058;4.824;2022-11-20T07:41:54;33.00;;;14.52;;
74908;SDS011;63468;52.058;4.824;2022-11-20T07:44:20;25.40;;;14.07;;
74908;SDS011;63468;52.058;4.824;2022-11-20T07:46:45;32.13;;;19.55;;
74908;SDS011;63468;52.058;4.824;2022-11-20T07:49:10;35.40;;;19.65;;
74908;SDS011;63468;52.058;4.824;2022-11-20T07:51:36;30.42;;;18.13;;
74908;SDS011;63468;52.058;4.824;2022-11-20T07:54:01;29.73;;;17.95;;
74908;SDS011;63468;52.058;4.824;2022-11-20T07:56:26;36.88;;;14.80;;
74908;SDS011;63468;52.058;4.824;2022-11-20T07:58:52;28.23;;;15.38;;
74908;SDS011;63468;52.058;4.824;2022-11-20T08:01:17;23.40;;;13.48;;
74908;SDS011;63468;52.058;4.824;2022-11-20T08:03:42;26.88;;;14.65;;
74908;SDS011;63468;52.058;4.824;2022-11-20T08:06:08;27.45;;;14.38;;
74908;SDS011;63468;52.058;4.824;2022-11-20T08:08:34;29.80;;;14.38;;
74908;SDS011;63468;52.058;4.824;2022-11-20T08:10:59;32.72;;;15.43;;
74908;SDS011;63468;52.058;4.824;2022-11-20T08:13:43;30.40;;;14.43;;
74908;SDS011;63468;52.058;4.824;2022-11-20T08:16:27;32.28;;;14.68;;
74908;SDS011;63468;52.058;4.824;2022-11-20T08:18:53;29.45;;;14.60;;
74908;SDS011;63468;52.058;4.824;2022-11-20T08:21:18;33.22;;;14.93;;
74908;SDS011;63468;52.058;4.824;2022-11-20T08:23:43;25.20;;;13.52;;
74908;SDS011;63468;52.058;4.824;2022-11-20T08:26:09;34.03;;;14.60;;
74908;SDS011;63468;52.058;4.824;2022-11-20T08:28:34;29.48;;;15.15;;
74908;SDS011;63468;52.058;4.824;2022-11-20T08:31:02;31.35;;;15.60;;
74908;SDS011;63468;52.058;4.824;2022-11-20T08:33:28;29.08;;;15.38;;
74908;SDS011;63468;52.058;4.824;2022-11-20T08:35:53;31.98;;;15.80;;
74908;SDS011;63468;52.058;4.824;2022-11-20T08:38:25;30.80;;;16.48;;
74908;SDS011;63468;52.058;4.824;2022-11-20T08:40:51;32.53;;;17.05;;
74908;SDS011;63468;52.058;4.824;2022-11-20T08:43:35;33.00;;;17.30;;
74908;SDS011;63468;52.058;4.824;2022-11-20T08:46:00;31.02;;;17.63;;
74908;SDS011;63468;52.058;4.824;2022-11-20T08:48:25;33.85;;;17.13;;
74908;SDS011;63468;52.058;4.824;2022-11-20T08:50:51;28.20;;;15.13;;
74908;SDS011;63468;52.058;4.824;2022-11-20T08:53:16;33.92;;;19.35;;
74908;SDS011;63468;52.058;4.824;2022-11-20T08:55:41;35.97;;;17.40;;
74908;SDS011;63468;52.058;4.824;2022-11-20T08:58:07;30.88;;;17.85;;
74908;SDS011;63468;52.058;4.824;2022-11-20T09:00:32;29.90;;;18.13;;
74908;SDS011;63468;52.058;4.824;2022-11-20T09:02:58;31.52;;;17.08;;
74908;SDS011;63468;52.058;4.824;2022-11-20T09:05:26;27.58;;;15.95;;
74908;SDS011;63468;52.058;4.824;2022-11-20T09:07:55;25.50;;;17.05;;
74908;SDS011;63468;52.058;4.824;2022-11-20T09:10:21;31.63;;;17.80;;
74908;SDS011;63468;52.058;4.824;2022-11-20T09:12:48;31.88;;;19.05;;
74908;SDS011;63468;52.058;4.824;2022-11-20T09:15:14;35.40;;;19.85;;
74908;SDS011;63468;52.058;4.824;2022-11-20T09:17:39;36.78;;;20.52;;
74908;SDS011;63468;52.058;4.824;2022-11-20T09:20:04;34.15;;;18.63;;
74908;SDS011;63468;52.058;4.824;2022-11-20T09:22:30;33.33;;;18.75;;
74908;SDS011;63468;52.058;4.824;2022-11-20T09:24:55;35.40;;;19.88;;
74908;SDS011;63468;52.058;4.824;2022-11-20T09:27:20;31.55;;;18.55;;
74908;SDS011;63468;52.058;4.824;2022-11-20T09:29:46;34.67;;;18.50;;
74908;SDS011;63468;52.058;4.824;2022-11-20T09:32:11;29.73;;;18.15;;
74908;SDS011;63468;52.058;4.824;2022-11-20T09:34:37;32.88;;;19.13;;
74908;SDS011;63468;52.058;4.824;2022-11-20T09:37:02;33.15;;;17.27;;
74908;SDS011;63468;52.058;4.824;2022-11-20T09:39:27;33.50;;;18.27;;
74908;SDS011;63468;52.058;4.824;2022-11-20T09:42:02;29.63;;;18.52;;
74908;SDS011;63468;52.058;4.824;2022-11-20T09:44:39;32.33;;;19.48;;
74908;SDS011;63468;52.058;4.824;2022-11-20T09:47:26;31.85;;;19.17;;
74908;SDS011;63468;52.058;4.824;2022-11-20T09:49:56;31.73;;;17.75;;
74908;SDS011;63468;52.058;4.824;2022-11-20T09:55:02;30.88;;;18.60;;
74908;SDS011;63468;52.058;4.824;2022-11-20T09:57:39;35.88;;;18.55;;
74908;SDS011;63468;52.058;4.824;2022-11-20T10:00:08;29.15;;;18.27;;
74908;SDS011;63468;52.058;4.824;2022-11-20T10:02:37;35.53;;;20.15;;
74908;SDS011;63468;52.058;4.824;2022-11-20T10:05:12;34.42;;;21.10;;
74908;SDS011;63468;52.058;4.824;2022-11-20T10:11:18;30.60;;;17.75;;
74908;SDS011;63468;52.058;4.824;2022-11-20T10:14:03;35.00;;;19.60;;
74908;SDS011;63468;52.058;4.824;2022-11-20T10:19:26;30.85;;;18.73;;
74908;SDS011;63468;52.058;4.824;2022-11-20T10:23:00;32.72;;;18.55;;
74908;SDS011;63468;52.058;4.824;2022-11-20T10:25:18;34.15;;;19.00;;
74908;SDS011;63468;52.058;4.824;2022-11-20T10:30:40;34.15;;;20.45;;
74908;SDS011;63468;52.058;4.824;2022-11-20T10:33:15;31.40;;;20.55;;
74908;SDS011;63468;52.058;4.824;2022-11-20T10:35:50;32.63;;;20.42;;
74908;SDS011;63468;52.058;4.824;2022-11-20T10:38:25;33.20;;;19.35;;
74908;SDS011;63468;52.058;4.824;2022-11-20T10:41:20;26.98;;;17.60;;
74908;SDS011;63468;52.058;4.824;2022-11-20T10:44:05;31.52;;;19.33;;
74908;SDS011;63468;52.058;4.824;2022-11-20T10:49:48;42.20;;;21.92;;
74908;SDS011;63468;52.058;4.824;2022-11-20T10:52:25;37.03;;;20.67;;
74908;SDS011;63468;52.058;4.824;2022-11-20T11:00:23;37.47;;;21.85;;
74908;SDS011;63468;52.058;4.824;2022-11-20T11:02:50;36.00;;;20.52;;
74908;SDS011;63468;52.058;4.824;2022-11-20T11:07:41;37.25;;;19.98;;
74908;SDS011;63468;52.058;4.824;2022-11-20T11:10:14;35.80;;;21.75;;
74908;SDS011;63468;52.058;4.824;2022-11-20T11:12:58;41.60;;;22.38;;
74908;SDS011;63468;52.058;4.824;2022-11-20T11:15:28;35.95;;;21.85;;
74908;SDS011;63468;52.058;4.824;2022-11-20T11:17:54;35.70;;;21.45;;
74908;SDS011;63468;52.058;4.824;2022-11-20T11:20:21;36.17;;;22.77;;
74908;SDS011;63468;52.058;4.824;2022-11-20T11:22:54;38.65;;;21.50;;
74908;SDS011;63468;52.058;4.824;2022-11-20T11:27:53;39.83;;;23.20;;
74908;SDS011;63468;52.058;4.824;2022-11-20T11:30:21;41.20;;;24.40;;
74908;SDS011;63468;52.058;4.824;2022-11-20T11:32:48;42.10;;;23.60;;
74908;SDS011;63468;52.058;4.824;2022-11-20T11:35:24;39.22;;;22.83;;
74908;SDS011;63468;52.058;4.824;2022-11-20T11:37:51;39.78;;;24.25;;
74908;SDS011;63468;52.058;4.824;2022-11-20T11:40:19;42.58;;;23.88;;
74908;SDS011;63468;52.058;4.824;2022-11-20T11:42:49;46.00;;;24.25;;
74908;SDS011;63468;52.058;4.824;2022-11-20T11:45:17;44.50;;;24.60;;
74908;SDS011;63468;52.058;4.824;2022-11-20T11:52:34;47.45;;;25.65;;
74908;SDS011;63468;52.058;4.824;2022-11-20T11:55:03;48.78;;;25.17;;
74908;SDS011;63468;52.058;4.824;2022-11-20T11:57:39;47.13;;;24.83;;
74908;SDS011;63468;52.058;4.824;2022-11-20T12:00:16;48.58;;;27.52;;
74908;SDS011;63468;52.058;4.824;2022-11-20T12:07:46;42.00;;;24.67;;
74908;SDS011;63468;52.058;4.824;2022-11-20T12:13:58;49.50;;;25.33;;
74908;SDS011;63468;52.058;4.824;2022-11-20T12:15:54;47.10;;;24.55;;
74908;SDS011;63468;52.058;4.824;2022-11-20T12:18:21;49.55;;;27.38;;
74908;SDS011;63468;52.058;4.824;2022-11-20T12:29:17;52.38;;;26.23;;
74908;SDS011;63468;52.058;4.824;2022-11-20T12:40:02;46.20;;;25.67;;
74908;SDS011;63468;52.058;4.824;2022-11-20T12:42:40;47.60;;;25.60;;
74908;SDS011;63468;52.058;4.824;2022-11-20T13:07:53;50.33;;;25.50;;
74908;SDS011;63468;52.058;4.824;2022-11-20T13:10:43;44.70;;;26.15;;
74908;SDS011;63468;52.058;4.824;2022-11-20T13:15:44;56.72;;;27.08;;
74908;SDS011;63468;52.058;4.824;2022-11-20T13:18:12;48.87;;;27.30;;
74908;SDS011;63468;52.058;4.824;2022-11-20T13:20:45;54.78;;;33.17;;
74908;SDS011;63468;52.058;4.824;2022-11-20T13:23:11;57.95;;;34.38;;
74908;SDS011;63468;52.058;4.824;2022-11-20T13:25:37;52.45;;;31.20;;
74908;SDS011;63468;52.058;4.824;2022-11-20T13:30:35;59.60;;;35.45;;
74908;SDS011;63468;52.058;4.824;2022-11-20T13:33:08;68.05;;;36.25;;
74908;SDS011;63468;52.058;4.824;2022-11-20T13:35:40;60.95;;;34.97;;
74908;SDS011;63468;52.058;4.824;2022-11-20T13:40:50;58.85;;;33.28;;
74908;SDS011;63468;52.058;4.824;2022-11-20T13:43:21;65.35;;;35.65;;
74908;SDS011;63468;52.058;4.824;2022-11-20T13:46:02;63.38;;;37.13;;
74908;SDS011;63468;52.058;4.824;2022-11-20T13:48:30;69.22;;;38.92;;
74908;SDS011;63468;52.058;4.824;2022-11-20T14:02:11;75.55;;;37.28;;
74908;SDS011;63468;52.058;4.824;2022-11-20T14:04:38;80.22;;;42.67;;
74908;SDS011;63468;52.058;4.824;2022-11-20T14:07:08;75.15;;;39.10;;
74908;SDS011;63468;52.058;4.824;2022-11-20T14:09:34;69.65;;;43.10;;
74908;SDS011;63468;52.058;4.824;2022-11-20T14:12:00;70.30;;;39.65;;
74908;SDS011;63468;52.058;4.824;2022-11-20T14:14:27;67.30;;;39.15;;
74908;SDS011;63468;52.058;4.824;2022-11-20T14:17:04;80.40;;;41.08;;
74908;SDS011;63468;52.058;4.824;2022-11-20T14:19:32;64.22;;;41.20;;
74908;SDS011;63468;52.058;4.824;2022-11-20T14:22:10;79.90;;;43.22;;
74908;SDS011;63468;52.058;4.824;2022-11-20T14:24:38;76.47;;;44.05;;
74908;SDS011;63468;52.058;4.824;2022-11-20T14:27:04;89.75;;;43.97;;
74908;SDS011;63468;52.058;4.824;2022-11-20T14:29:32;67.82;;;39.67;;
74908;SDS011;63468;52.058;4.824;2022-11-20T14:31:59;87.70;;;42.97;;
74908;SDS011;63468;52.058;4.824;2022-11-20T14:34:27;59.38;;;39.38;;
74908;SDS011;63468;52.058;4.824;2022-11-20T14:36:57;72.20;;;46.10;;
74908;SDS011;63468;52.058;4.824;2022-11-20T14:40:20;85.80;;;49.40;;
74908;SDS011;63468;52.058;4.824;2022-11-20T14:42:19;75.38;;;48.80;;
74908;SDS011;63468;52.058;4.824;2022-11-20T14:44:49;85.28;;;47.10;;
74908;SDS011;63468;52.058;4.824;2022-11-20T14:47:18;87.63;;;54.38;;
74908;SDS011;63468;52.058;4.824;2022-11-20T14:49:46;76.97;;;46.60;;
74908;SDS011;63468;52.058;4.824;2022-11-20T14:52:19;82.30;;;45.40;;
74908;SDS011;63468;52.058;4.824;2022-11-20T14:54:47;82.45;;;47.25;;
74908;SDS011;63468;52.058;4.824;2022-11-20T14:57:24;62.08;;;40.15;;
74908;SDS011;63468;52.058;4.824;2022-11-20T14:59:50;103.38;;;54.00;;
74908;SDS011;63468;52.058;4.824;2022-11-20T15:02:16;79.90;;;44.95;;
74908;SDS011;63468;52.058;4.824;2022-11-20T15:04:45;113.68;;;55.78;;
74908;SDS011;63468;52.058;4.824;2022-11-20T15:07:11;85.07;;;45.90;;
74908;SDS011;63468;52.058;4.824;2022-11-20T15:10:00;105.38;;;53.47;;
74908;SDS011;63468;52.058;4.824;2022-11-20T15:12:36;136.13;;;69.72;;
74908;SDS011;63468;52.058;4.824;2022-11-20T15:15:09;83.87;;;52.80;;
74908;SDS011;63468;52.058;4.824;2022-11-20T15:17:36;103.40;;;54.78;;
74908;SDS011;63468;52.058;4.824;2022-11-20T15:20:02;76.63;;;44.47;;
74908;SDS011;63468;52.058;4.824;2022-11-20T15:22:30;106.30;;;54.80;;
74908;SDS011;63468;52.058;4.824;2022-11-20T15:24:56;95.47;;;50.28;;
74908;SDS011;63468;52.058;4.824;2022-11-20T15:27:21;91.97;;;49.22;;
74908;SDS011;63468;52.058;4.824;2022-11-20T15:29:46;108.72;;;54.60;;
74908;SDS011;63468;52.058;4.824;2022-11-20T15:32:12;110.35;;;54.22;;
74908;SDS011;63468;52.058;4.824;2022-11-20T15:34:37;118.55;;;61.65;;
74908;SDS011;63468;52.058;4.824;2022-11-20T15:37:02;116.63;;;55.67;;
74908;SDS011;63468;52.058;4.824;2022-11-20T15:39:28;92.15;;;49.28;;
74908;SDS011;63468;52.058;4.824;2022-11-20T15:41:53;97.10;;;54.63;;
74908;SDS011;63468;52.058;4.824;2022-11-20T15:44:18;112.28;;;53.28;;
74908;SDS011;63468;52.058;4.824;2022-11-20T15:46:43;83.22;;;46.60;;
74908;SDS011;63468;52.058;4.824;2022-11-20T15:49:12;74.07;;;41.42;;
74908;SDS011;63468;52.058;4.824;2022-11-20T15:51:46;100.13;;;57.88;;
74908;SDS011;63468;52.058;4.824;2022-11-20T15:54:14;77.80;;;46.53;;
74908;SDS011;63468;52.058;4.824;2022-11-20T15:56:45;94.47;;;51.65;;
74908;SDS011;63468;52.058;4.824;2022-11-20T15:59:13;62.50;;;41.60;;
74908;SDS011;63468;52.058;4.824;2022-11-20T16:01:42;60.75;;;39.97;;
74908;SDS011;63468;52.058;4.824;2022-11-20T16:04:11;55.17;;;38.72;;